createdAt,value
2019-01-18T00:01:24.009Z,1.3
2019-01-18T00:06:29.380Z,1.3
2019-01-18T00:11:34.732Z,1.2
2019-01-18T00:16:39.712Z,1.2
2019-01-18T00:21:44.840Z,1.2
2019-01-18T00:26:49.821Z,1.2
2019-01-18T00:31:53.508Z,1.2
2019-01-18T00:36:59.387Z,1.3
2019-01-18T00:42:05.064Z,1.1
2019-01-18T00:47:11.346Z,1.3
2019-01-18T00:52:17.611Z,1.1
2019-01-18T00:57:23.600Z,1.2
2019-01-18T01:02:29.405Z,1.1
2019-01-18T01:07:34.642Z,1.2
2019-01-18T01:12:40.144Z,1.1
2019-01-18T01:17:45.861Z,1
2019-01-18T01:22:51.024Z,1.2
2019-01-18T01:27:57.022Z,1
2019-01-18T01:33:02.293Z,1
2019-01-18T01:38:07.977Z,1.1
2019-01-18T01:43:13.398Z,1.1
2019-01-18T01:48:19.367Z,1
2019-01-18T01:53:25.536Z,1.1
2019-01-18T01:58:30.511Z,1
2019-01-18T02:03:36.667Z,1
2019-01-18T02:08:42.682Z,1.1
2019-01-18T02:13:47.188Z,1
2019-01-18T02:18:52.684Z,0.9
2019-01-18T02:23:58.133Z,1
2019-01-18T02:29:03.909Z,1
2019-01-18T02:34:09.476Z,0.9
2019-01-18T02:39:14.593Z,1
2019-01-18T02:44:20.328Z,1
2019-01-18T02:49:25.555Z,1
2019-01-18T02:54:31.710Z,0.9
2019-01-18T02:59:37.687Z,0.9
2019-01-18T03:04:44.190Z,1.1
2019-01-18T03:09:49.872Z,1
2019-01-18T03:14:55.175Z,0.9
2019-01-18T03:20:01.052Z,0.8
2019-01-18T03:25:06.140Z,0.9
2019-01-18T03:30:21.193Z,0.8
2019-01-18T03:35:16.949Z,0.9
2019-01-18T03:40:22.915Z,1
2019-01-18T03:45:29.009Z,1
2019-01-18T03:50:28.977Z,0.9
2019-01-18T03:55:34.125Z,1
2019-01-18T04:00:37.984Z,0.8
2019-01-18T04:05:43.206Z,0.8
2019-01-18T04:10:48.995Z,0.8
2019-01-18T04:15:54.319Z,0.9
2019-01-18T04:20:59.216Z,0.8
2019-01-18T04:26:04.971Z,0.8
2019-01-18T04:31:10.235Z,0.9
2019-01-18T04:36:15.734Z,0.8
2019-01-18T04:41:21.364Z,0.7
2019-01-18T04:46:25.637Z,0.8
2019-01-18T04:51:30.800Z,0.9
2019-01-18T04:56:36.195Z,0.9
2019-01-18T05:01:41.221Z,0.8
2019-01-18T05:06:46.960Z,0.9
2019-01-18T05:11:52.858Z,0.9
2019-01-18T05:16:58.053Z,1.1
2019-01-18T05:22:03.783Z,1
2019-01-18T05:27:09.310Z,1
2019-01-18T05:32:14.980Z,1.1
2019-01-18T05:37:19.434Z,1
2019-01-18T05:42:25.204Z,1
2019-01-18T05:47:31.173Z,1.2
2019-01-18T05:52:36.869Z,1.1
2019-01-18T05:57:43.084Z,1
2019-01-18T06:02:47.969Z,1.4
2019-01-18T06:07:53.427Z,1.1
2019-01-18T06:12:59.398Z,1.1
2019-01-18T06:18:05.492Z,1.2
2019-01-18T06:23:10.844Z,1.2
2019-01-18T06:28:16.140Z,1
2019-01-18T06:33:22.101Z,0.9
2019-01-18T06:38:27.725Z,1
2019-01-18T06:43:33.604Z,1
2019-01-18T06:48:38.929Z,1.1
2019-01-18T06:53:44.455Z,1.1
2019-01-18T06:58:50.255Z,1.3
2019-01-18T07:03:55.313Z,1.3
2019-01-18T07:08:59.119Z,1.4
2019-01-18T07:14:04.689Z,1.5
2019-01-18T07:19:10.040Z,1.5
2019-01-18T07:24:15.704Z,1.2
2019-01-18T07:29:21.632Z,1.5
2019-01-18T07:34:26.855Z,1.3
2019-01-18T07:39:32.720Z,1.4
2019-01-18T07:44:38.793Z,1.3
2019-01-18T07:49:44.740Z,1.4
2019-01-18T07:54:49.911Z,1.4
2019-01-18T07:59:54.959Z,1.1
2019-01-18T08:05:00.529Z,1.5
2019-01-18T08:10:06.728Z,1.4
2019-01-18T08:15:12.827Z,1.4
2019-01-18T08:20:17.993Z,1.3
2019-01-18T08:25:23.121Z,1.5
2019-01-18T08:30:29.096Z,1.8
2019-01-18T08:35:34.765Z,1.5
2019-01-18T08:40:39.222Z,1.7
2019-01-18T08:45:44.268Z,1.3
2019-01-18T08:50:49.915Z,1.7
2019-01-18T08:55:55.492Z,1.3
2019-01-18T09:01:00.639Z,1.3
2019-01-18T09:06:05.955Z,1.3
2019-01-18T09:11:11.851Z,1.4
2019-01-18T09:16:17.027Z,1.3
2019-01-18T09:21:22.208Z,1.2
2019-01-18T09:26:27.924Z,1.2
2019-01-18T09:31:33.564Z,1.4
2019-01-18T09:36:39.148Z,1.2
2019-01-18T09:41:45.011Z,1.2
2019-01-18T09:46:50.295Z,1.5
2019-01-18T09:51:56.143Z,1.6
2019-01-18T09:57:01.714Z,1.6
2019-01-18T10:02:06.896Z,2.9
2019-01-18T10:07:13.115Z,2.6
2019-01-18T10:12:19.136Z,2.2
2019-01-18T10:17:24.267Z,2.6
2019-01-18T10:22:29.933Z,3.2
2019-01-18T10:27:35.317Z,2.5
2019-01-18T10:32:40.285Z,2.4
2019-01-18T10:37:45.191Z,2.3
2019-01-18T10:42:50.428Z,2.6
2019-01-18T10:47:55.683Z,3.5
2019-01-18T10:53:01.986Z,2.6
2019-01-18T10:58:06.235Z,2.6
2019-01-18T11:03:12.514Z,2.4
2019-01-18T11:08:18.374Z,2.2
2019-01-18T11:13:21.352Z,2.2
2019-01-18T11:18:26.393Z,2
2019-01-18T11:23:32.321Z,2.2
2019-01-18T11:28:38.144Z,1.9
2019-01-18T11:33:43.651Z,2.1
2019-01-18T11:38:49.554Z,2
2019-01-18T11:43:54.724Z,2
2019-01-18T11:49:00.044Z,1.8
2019-01-18T11:54:04.619Z,1.7
2019-01-18T11:59:09.834Z,1.5
2019-01-18T12:04:15.841Z,1.7
2019-01-18T12:09:20.921Z,3.7
2019-01-18T12:14:26.314Z,5.7
2019-01-18T12:19:32.038Z,5.5
2019-01-18T12:24:37.398Z,4.3
2019-01-18T12:29:43.268Z,4.2
2019-01-18T12:34:48.898Z,3.8
2019-01-18T12:39:54.303Z,3.5
2019-01-18T12:45:01.111Z,3.3
2019-01-18T12:50:08.071Z,3.1
2019-01-18T12:55:14.135Z,2.9
2019-01-18T13:00:19.849Z,2.6
2019-01-18T13:05:26.203Z,2.3
2019-01-18T13:10:31.571Z,2.4
2019-01-18T13:15:38.367Z,2.2
2019-01-18T13:20:44.222Z,2.2
2019-01-18T13:25:49.959Z,2
2019-01-18T13:30:55.050Z,2.1
2019-01-18T13:36:01.236Z,2.2
2019-01-18T13:41:06.761Z,2.6
2019-01-18T13:46:12.265Z,1.9
2019-01-18T13:51:15.886Z,1.8
2019-01-18T13:56:21.153Z,1.5
2019-01-18T14:01:27.132Z,1.4
2019-01-18T14:06:32.877Z,1.8
2019-01-18T14:11:38.168Z,1.7
2019-01-18T14:16:44.135Z,1.6
2019-01-18T14:21:49.798Z,1.4
2019-01-18T14:26:55.422Z,1.4
2019-01-18T14:32:00.618Z,1.5
2019-01-18T14:37:05.598Z,1.5
2019-01-18T14:42:06.030Z,1.4
2019-01-18T14:47:10.400Z,1.3
2019-01-18T14:52:16.458Z,1.3
2019-01-18T14:57:23.988Z,1.3
2019-01-18T15:02:29.230Z,1.4
2019-01-18T15:07:34.467Z,1.4
2019-01-18T15:12:39.431Z,1.3
2019-01-18T15:17:44.458Z,1.6
2019-01-18T15:22:49.831Z,1.4
2019-01-18T15:27:55.605Z,1.3
2019-01-18T15:33:01.558Z,1.4
2019-01-18T15:38:03.650Z,1.2
2019-01-18T15:43:08.938Z,1.6
2019-01-18T15:48:14.180Z,2
2019-01-18T15:53:19.228Z,2.1
2019-01-18T15:58:24.605Z,1.9
2019-01-18T16:03:29.677Z,2.1
2019-01-18T16:08:35.632Z,1.9
2019-01-18T16:13:41.561Z,2
2019-01-18T16:18:46.753Z,2
2019-01-18T16:23:52.139Z,1.7
2019-01-18T16:28:57.335Z,1.9
2019-01-18T16:34:02.369Z,1.7
2019-01-18T16:39:07.969Z,2
2019-01-18T16:44:13.534Z,1.9
2019-01-18T16:49:19.464Z,1.5
2019-01-18T16:54:25.182Z,1.8
2019-01-18T16:59:31.982Z,1.5
2019-01-18T17:04:38.112Z,1.9
2019-01-18T17:09:43.934Z,2.1
2019-01-18T17:14:49.686Z,2.2
2019-01-18T17:19:55.189Z,2.5
2019-01-18T17:25:00.603Z,3.2
2019-01-18T17:30:06.628Z,5
2019-01-18T17:35:18.261Z,23.9
2019-01-18T17:40:24.515Z,24.3
2019-01-18T17:45:30.544Z,21.5
2019-01-18T17:50:36.814Z,19.8
2019-01-18T17:55:43.009Z,20.7
2019-01-18T18:00:49.860Z,18.6
2019-01-18T18:05:55.980Z,19.4
2019-01-18T18:11:03.400Z,18.6
2019-01-18T18:16:11.259Z,17
2019-01-18T18:21:18.067Z,10.7
2019-01-18T18:26:24.975Z,7.8
2019-01-18T18:31:31.040Z,6.8
2019-01-18T18:36:32.477Z,5.5
2019-01-18T18:41:33.036Z,5.1
2019-01-18T18:46:39.301Z,4.8
2019-01-18T18:51:46.696Z,4.6
2019-01-18T18:56:53.002Z,4.4
2019-01-18T19:01:58.953Z,4.9
2019-01-18T19:07:05.352Z,4.6
2019-01-18T19:12:12.374Z,4.2
2019-01-18T19:17:19.069Z,4.3
2019-01-18T19:22:25.417Z,4.4
2019-01-18T19:27:31.678Z,4.2
2019-01-18T19:32:38.598Z,4
2019-01-18T19:37:44.849Z,3.9
2019-01-18T19:42:51.394Z,4.1
2019-01-18T19:47:57.717Z,4
2019-01-18T19:53:05.954Z,3.8
2019-01-18T19:58:12.109Z,3.8
2019-01-18T20:03:18.244Z,3.7
2019-01-18T20:08:22.620Z,3.9
2019-01-18T20:13:28.628Z,3.7
2019-01-18T20:18:33.404Z,3.7
2019-01-18T20:23:39.861Z,3.6
2019-01-18T20:28:46.422Z,3.7
2019-01-18T20:33:52.714Z,3.5
2019-01-18T20:38:59.129Z,3.4
2019-01-18T20:44:05.946Z,3.6
2019-01-18T20:49:12.174Z,3.2
2019-01-18T20:54:18.996Z,3.4
2019-01-18T20:59:25.259Z,3.4
2019-01-18T21:04:34.259Z,3.4
2019-01-18T21:09:39.954Z,3.1
2019-01-18T21:14:45.646Z,3.1
2019-01-18T21:19:51.261Z,3.2
2019-01-18T21:24:56.912Z,3.1
2019-01-18T21:30:02.891Z,2.9
2019-01-18T21:47:10.092Z,3.1
2019-01-18T21:52:16.068Z,3.2
2019-01-18T21:57:21.339Z,3
2019-01-18T22:02:27.086Z,2.8
2019-01-18T22:07:31.975Z,2.9
2019-01-18T22:12:40.486Z,2.9
2019-01-18T22:17:46.253Z,3.1
2019-01-18T22:22:52.095Z,2.8
2019-01-18T22:27:57.399Z,2.5
2019-01-18T22:33:03.661Z,3
2019-01-18T22:38:09.026Z,3.3
2019-01-18T22:43:14.161Z,3.1
2019-01-18T22:48:19.861Z,3.3
2019-01-18T22:53:25.742Z,3.1
2019-01-18T22:58:33.259Z,2.9
2019-01-18T23:03:38.412Z,2.9
2019-01-18T23:08:43.438Z,3.2
2019-01-18T23:13:48.871Z,3.2
2019-01-18T23:18:54.215Z,3
2019-01-18T23:23:59.939Z,2.8
2019-01-18T23:29:04.008Z,2.9
2019-01-18T23:34:09.385Z,2.9
2019-01-18T23:39:15.050Z,2.9
2019-01-18T23:44:20.563Z,2.3
2019-01-18T23:49:26.277Z,2.6
2019-01-18T23:54:31.903Z,2.4
2019-01-18T23:59:39.739Z,2.5
